<?xml version="1.0" encoding="UTF-8" standalone="no" ?>
<gpx xmlns="http://www.topografix.com/GPX/1/1" xmlns:xsi="http://www.w3.org/2001/XMLSchema-instance" xsi:schemaLocation="http://www.topografix.com/GPX/1/1 http://www.topografix.com/GPX/1/1/gpx.xsd" version="1.1" creator="VisuGPX - https://www.visugpx.com">
  <metadata>
    <name>Le bois des Allemands </name>
    <desc><![CDATA[Itinéraire du bois des allemands au col de la Croix du Ban (69)]]></desc>
  </metadata>
  <trk>
    <name><![CDATA[2021-03-24 10-09-42]]></name>
    <extensions>
      <line xmlns="http://www.topografix.com/GPX/gpx_style/0/2">
        <color>0000FF</color>
        <width>4</width>
      </line>
    </extensions>
    <trkseg>
      <trkpt lat="45.77788" lon="4.64002">
        <ele>586.54</ele>
        <time>2021-03-24T09:02:51Z</time>
      </trkpt>
      <trkpt lat="45.77788" lon="4.64002">
        <ele>586.54</ele>
        <time>2021-03-24T09:02:52Z</time>
      </trkpt>
      <trkpt lat="45.77788" lon="4.64006">
        <ele>586.54</ele>
        <time>2021-03-24T09:02:59Z</time>
      </trkpt>
      <trkpt lat="45.77786" lon="4.63997">
        <ele>586.06</ele>
        <time>2021-03-24T09:03:03Z</time>
      </trkpt>
      <trkpt lat="45.77786" lon="4.63993">
        <ele>586.06</ele>
        <time>2021-03-24T09:03:04Z</time>
      </trkpt>
      <trkpt lat="45.77785" lon="4.6399">
        <ele>586.06</ele>
        <time>2021-03-24T09:03:05Z</time>
      </trkpt>
      <trkpt lat="45.77784" lon="4.63988">
        <ele>586.54</ele>
        <time>2021-03-24T09:03:06Z</time>
      </trkpt>
      <trkpt lat="45.77782" lon="4.63986">
        <ele>587.02</ele>
        <time>2021-03-24T09:03:07Z</time>
      </trkpt>
      <trkpt lat="45.77758" lon="4.63959">
        <ele>587.02</ele>
        <time>2021-03-24T09:03:20Z</time>
      </trkpt>
      <trkpt lat="45.77726" lon="4.63935">
        <ele>587.5</ele>
        <time>2021-03-24T09:03:32Z</time>
      </trkpt>
      <trkpt lat="45.77689" lon="4.63922">
        <ele>588.95</ele>
        <time>2021-03-24T09:03:45Z</time>
      </trkpt>
      <trkpt lat="45.77644" lon="4.63893">
        <ele>590.39</ele>
        <time>2021-03-24T09:03:56Z</time>
      </trkpt>
      <trkpt lat="45.77614" lon="4.63873">
        <ele>589.91</ele>
        <time>2021-03-24T09:04:01Z</time>
      </trkpt>
      <trkpt lat="45.77608" lon="4.63869">
        <ele>589.91</ele>
        <time>2021-03-24T09:04:02Z</time>
      </trkpt>
      <trkpt lat="45.77602" lon="4.63865">
        <ele>588.95</ele>
        <time>2021-03-24T09:04:03Z</time>
      </trkpt>
      <trkpt lat="45.77592" lon="4.6386">
        <ele>587.5</ele>
        <time>2021-03-24T09:04:05Z</time>
      </trkpt>
      <trkpt lat="45.77587" lon="4.6386">
        <ele>587.5</ele>
        <time>2021-03-24T09:04:06Z</time>
      </trkpt>
      <trkpt lat="45.77583" lon="4.63861">
        <ele>587.02</ele>
        <time>2021-03-24T09:04:07Z</time>
      </trkpt>
      <trkpt lat="45.7758" lon="4.63866">
        <ele>587.02</ele>
        <time>2021-03-24T09:04:08Z</time>
      </trkpt>
      <trkpt lat="45.77578" lon="4.63873">
        <ele>587.02</ele>
        <time>2021-03-24T09:04:09Z</time>
      </trkpt>
      <trkpt lat="45.77574" lon="4.63885">
        <ele>587.02</ele>
        <time>2021-03-24T09:04:11Z</time>
      </trkpt>
      <trkpt lat="45.7757" lon="4.63891">
        <ele>587.02</ele>
        <time>2021-03-24T09:04:12Z</time>
      </trkpt>
      <trkpt lat="45.77567" lon="4.63896">
        <ele>586.54</ele>
        <time>2021-03-24T09:04:13Z</time>
      </trkpt>
      <trkpt lat="45.77554" lon="4.63915">
        <ele>586.06</ele>
        <time>2021-03-24T09:04:16Z</time>
      </trkpt>
      <trkpt lat="45.77532" lon="4.63939">
        <ele>585.58</ele>
        <time>2021-03-24T09:04:20Z</time>
      </trkpt>
      <trkpt lat="45.77519" lon="4.63948">
        <ele>585.1</ele>
        <time>2021-03-24T09:04:22Z</time>
      </trkpt>
      <trkpt lat="45.77512" lon="4.63953">
        <ele>584.62</ele>
        <time>2021-03-24T09:04:23Z</time>
      </trkpt>
      <trkpt lat="45.77504" lon="4.63955">
        <ele>584.14</ele>
        <time>2021-03-24T09:04:24Z</time>
      </trkpt>
      <trkpt lat="45.77497" lon="4.63957">
        <ele>583.18</ele>
        <time>2021-03-24T09:04:25Z</time>
      </trkpt>
      <trkpt lat="45.77491" lon="4.63958">
        <ele>583.18</ele>
        <time>2021-03-24T09:04:26Z</time>
      </trkpt>
      <trkpt lat="45.77485" lon="4.63958">
        <ele>582.22</ele>
        <time>2021-03-24T09:04:27Z</time>
      </trkpt>
      <trkpt lat="45.77473" lon="4.6396">
        <ele>581.73</ele>
        <time>2021-03-24T09:04:29Z</time>
      </trkpt>
      <trkpt lat="45.77467" lon="4.63962">
        <ele>581.25</ele>
        <time>2021-03-24T09:04:30Z</time>
      </trkpt>
      <trkpt lat="45.77462" lon="4.63963">
        <ele>581.25</ele>
        <time>2021-03-24T09:04:31Z</time>
      </trkpt>
      <trkpt lat="45.77451" lon="4.63968">
        <ele>581.25</ele>
        <time>2021-03-24T09:04:33Z</time>
      </trkpt>
      <trkpt lat="45.77446" lon="4.63971">
        <ele>581.25</ele>
        <time>2021-03-24T09:04:34Z</time>
      </trkpt>
      <trkpt lat="45.77442" lon="4.63976">
        <ele>581.25</ele>
        <time>2021-03-24T09:04:35Z</time>
      </trkpt>
      <trkpt lat="45.77438" lon="4.63981">
        <ele>581.25</ele>
        <time>2021-03-24T09:04:36Z</time>
      </trkpt>
      <trkpt lat="45.77434" lon="4.63986">
        <ele>581.25</ele>
        <time>2021-03-24T09:04:37Z</time>
      </trkpt>
      <trkpt lat="45.77418" lon="4.64012">
        <ele>581.73</ele>
        <time>2021-03-24T09:04:43Z</time>
      </trkpt>
      <trkpt lat="45.77416" lon="4.64016">
        <ele>582.22</ele>
        <time>2021-03-24T09:04:44Z</time>
      </trkpt>
      <trkpt lat="45.77412" lon="4.64027">
        <ele>582.7</ele>
        <time>2021-03-24T09:04:46Z</time>
      </trkpt>
      <trkpt lat="45.7741" lon="4.64033">
        <ele>583.18</ele>
        <time>2021-03-24T09:04:47Z</time>
      </trkpt>
      <trkpt lat="45.77407" lon="4.64038">
        <ele>583.66</ele>
        <time>2021-03-24T09:04:48Z</time>
      </trkpt>
      <trkpt lat="45.77404" lon="4.64043">
        <ele>584.14</ele>
        <time>2021-03-24T09:04:49Z</time>
      </trkpt>
      <trkpt lat="45.77401" lon="4.6405">
        <ele>584.62</ele>
        <time>2021-03-24T09:04:50Z</time>
      </trkpt>
      <trkpt lat="45.77399" lon="4.64055">
        <ele>584.62</ele>
        <time>2021-03-24T09:04:51Z</time>
      </trkpt>
      <trkpt lat="45.77397" lon="4.64061">
        <ele>584.62</ele>
        <time>2021-03-24T09:04:52Z</time>
      </trkpt>
      <trkpt lat="45.77393" lon="4.64068">
        <ele>584.62</ele>
        <time>2021-03-24T09:04:53Z</time>
      </trkpt>
      <trkpt lat="45.77383" lon="4.64085">
        <ele>584.62</ele>
        <time>2021-03-24T09:04:55Z</time>
      </trkpt>
      <trkpt lat="45.77379" lon="4.64093">
        <ele>584.62</ele>
        <time>2021-03-24T09:04:56Z</time>
      </trkpt>
      <trkpt lat="45.77375" lon="4.641">
        <ele>584.62</ele>
        <time>2021-03-24T09:04:57Z</time>
      </trkpt>
      <trkpt lat="45.77372" lon="4.64106">
        <ele>584.62</ele>
        <time>2021-03-24T09:04:58Z</time>
      </trkpt>
      <trkpt lat="45.77369" lon="4.64112">
        <ele>584.62</ele>
        <time>2021-03-24T09:04:59Z</time>
      </trkpt>
      <trkpt lat="45.77366" lon="4.64119">
        <ele>584.62</ele>
        <time>2021-03-24T09:05:00Z</time>
      </trkpt>
      <trkpt lat="45.77362" lon="4.64126">
        <ele>584.62</ele>
        <time>2021-03-24T09:05:01Z</time>
      </trkpt>
      <trkpt lat="45.77341" lon="4.64165">
        <ele>585.1</ele>
        <time>2021-03-24T09:05:07Z</time>
      </trkpt>
      <trkpt lat="45.77337" lon="4.6417">
        <ele>585.1</ele>
        <time>2021-03-24T09:05:08Z</time>
      </trkpt>
      <trkpt lat="45.77334" lon="4.64175">
        <ele>584.62</ele>
        <time>2021-03-24T09:05:09Z</time>
      </trkpt>
      <trkpt lat="45.77318" lon="4.64194">
        <ele>584.62</ele>
        <time>2021-03-24T09:05:13Z</time>
      </trkpt>
      <trkpt lat="45.77315" lon="4.64195">
        <ele>584.62</ele>
        <time>2021-03-24T09:05:14Z</time>
      </trkpt>
      <trkpt lat="45.77295" lon="4.64204">
        <ele>584.62</ele>
        <time>2021-03-24T09:05:19Z</time>
      </trkpt>
      <trkpt lat="45.77292" lon="4.64204">
        <ele>584.62</ele>
        <time>2021-03-24T09:05:20Z</time>
      </trkpt>
      <trkpt lat="45.77276" lon="4.64201">
        <ele>585.58</ele>
        <time>2021-03-24T09:05:24Z</time>
      </trkpt>
      <trkpt lat="45.77271" lon="4.64201">
        <ele>586.06</ele>
        <time>2021-03-24T09:05:25Z</time>
      </trkpt>
      <trkpt lat="45.77267" lon="4.642">
        <ele>586.06</ele>
        <time>2021-03-24T09:05:26Z</time>
      </trkpt>
      <trkpt lat="45.77263" lon="4.64198">
        <ele>586.06</ele>
        <time>2021-03-24T09:05:27Z</time>
      </trkpt>
      <trkpt lat="45.77259" lon="4.64196">
        <ele>586.06</ele>
        <time>2021-03-24T09:05:28Z</time>
      </trkpt>
      <trkpt lat="45.77256" lon="4.64194">
        <ele>586.06</ele>
        <time>2021-03-24T09:05:29Z</time>
      </trkpt>
      <trkpt lat="45.77251" lon="4.64194">
        <ele>586.06</ele>
        <time>2021-03-24T09:05:30Z</time>
      </trkpt>
      <trkpt lat="45.77248" lon="4.64193">
        <ele>586.06</ele>
        <time>2021-03-24T09:05:31Z</time>
      </trkpt>
      <trkpt lat="45.77244" lon="4.64192">
        <ele>586.06</ele>
        <time>2021-03-24T09:05:32Z</time>
      </trkpt>
      <trkpt lat="45.77229" lon="4.64191">
        <ele>586.54</ele>
        <time>2021-03-24T09:05:36Z</time>
      </trkpt>
      <trkpt lat="45.77196" lon="4.64188">
        <ele>586.54</ele>
        <time>2021-03-24T09:05:43Z</time>
      </trkpt>
      <trkpt lat="45.77192" lon="4.64186">
        <ele>586.54</ele>
        <time>2021-03-24T09:05:44Z</time>
      </trkpt>
      <trkpt lat="45.77188" lon="4.64184">
        <ele>586.54</ele>
        <time>2021-03-24T09:05:45Z</time>
      </trkpt>
      <trkpt lat="45.77184" lon="4.64183">
        <ele>586.06</ele>
        <time>2021-03-24T09:05:46Z</time>
      </trkpt>
      <trkpt lat="45.77181" lon="4.64181">
        <ele>586.06</ele>
        <time>2021-03-24T09:05:47Z</time>
      </trkpt>
      <trkpt lat="45.77178" lon="4.64179">
        <ele>586.06</ele>
        <time>2021-03-24T09:05:48Z</time>
      </trkpt>
      <trkpt lat="45.77173" lon="4.64179">
        <ele>585.58</ele>
        <time>2021-03-24T09:05:49Z</time>
      </trkpt>
      <trkpt lat="45.77169" lon="4.64177">
        <ele>585.58</ele>
        <time>2021-03-24T09:05:50Z</time>
      </trkpt>
      <trkpt lat="45.77164" lon="4.64175">
        <ele>585.1</ele>
        <time>2021-03-24T09:05:51Z</time>
      </trkpt>
      <trkpt lat="45.7716" lon="4.64172">
        <ele>584.62</ele>
        <time>2021-03-24T09:05:52Z</time>
      </trkpt>
      <trkpt lat="45.77156" lon="4.6417">
        <ele>584.14</ele>
        <time>2021-03-24T09:05:53Z</time>
      </trkpt>
      <trkpt lat="45.77147" lon="4.64165">
        <ele>583.66</ele>
        <time>2021-03-24T09:05:56Z</time>
      </trkpt>
      <trkpt lat="45.77144" lon="4.64162">
        <ele>583.18</ele>
        <time>2021-03-24T09:05:57Z</time>
      </trkpt>
      <trkpt lat="45.77132" lon="4.64156">
        <ele>581.25</ele>
        <time>2021-03-24T09:06:00Z</time>
      </trkpt>
      <trkpt lat="45.7712" lon="4.6416">
        <ele>579.81</ele>
        <time>2021-03-24T09:06:02Z</time>
      </trkpt>
      <trkpt lat="45.77116" lon="4.64164">
        <ele>579.33</ele>
        <time>2021-03-24T09:06:03Z</time>
      </trkpt>
      <trkpt lat="45.77113" lon="4.6417">
        <ele>579.33</ele>
        <time>2021-03-24T09:06:04Z</time>
      </trkpt>
      <trkpt lat="45.77111" lon="4.64176">
        <ele>579.33</ele>
        <time>2021-03-24T09:06:05Z</time>
      </trkpt>
      <trkpt lat="45.77109" lon="4.64182">
        <ele>578.85</ele>
        <time>2021-03-24T09:06:06Z</time>
      </trkpt>
      <trkpt lat="45.77108" lon="4.64188">
        <ele>578.85</ele>
        <time>2021-03-24T09:06:07Z</time>
      </trkpt>
      <trkpt lat="45.77107" lon="4.64194">
        <ele>578.37</ele>
        <time>2021-03-24T09:06:08Z</time>
      </trkpt>
      <trkpt lat="45.77105" lon="4.642">
        <ele>577.89</ele>
        <time>2021-03-24T09:06:09Z</time>
      </trkpt>
      <trkpt lat="45.77103" lon="4.64206">
        <ele>577.41</ele>
        <time>2021-03-24T09:06:10Z</time>
      </trkpt>
      <trkpt lat="45.77099" lon="4.64222">
        <ele>575.97</ele>
        <time>2021-03-24T09:06:12Z</time>
      </trkpt>
      <trkpt lat="45.77097" lon="4.64248">
        <ele>575.01</ele>
        <time>2021-03-24T09:06:15Z</time>
      </trkpt>
      <trkpt lat="45.77096" lon="4.64256">
        <ele>575.01</ele>
        <time>2021-03-24T09:06:16Z</time>
      </trkpt>
      <trkpt lat="45.77096" lon="4.64263">
        <ele>575.01</ele>
        <time>2021-03-24T09:06:17Z</time>
      </trkpt>
      <trkpt lat="45.77097" lon="4.64271">
        <ele>575.01</ele>
        <time>2021-03-24T09:06:18Z</time>
      </trkpt>
      <trkpt lat="45.77097" lon="4.64279">
        <ele>575.01</ele>
        <time>2021-03-24T09:06:19Z</time>
      </trkpt>
      <trkpt lat="45.77098" lon="4.64287">
        <ele>574.53</ele>
        <time>2021-03-24T09:06:20Z</time>
      </trkpt>
      <trkpt lat="45.77099" lon="4.64296">
        <ele>574.53</ele>
        <time>2021-03-24T09:06:21Z</time>
      </trkpt>
      <trkpt lat="45.77098" lon="4.64305">
        <ele>573.56</ele>
        <time>2021-03-24T09:06:22Z</time>
      </trkpt>
      <trkpt lat="45.77099" lon="4.64314">
        <ele>573.56</ele>
        <time>2021-03-24T09:06:23Z</time>
      </trkpt>
      <trkpt lat="45.77101" lon="4.64353">
        <ele>570.2</ele>
        <time>2021-03-24T09:06:27Z</time>
      </trkpt>
      <trkpt lat="45.77102" lon="4.6438">
        <ele>567.8</ele>
        <time>2021-03-24T09:06:30Z</time>
      </trkpt>
      <trkpt lat="45.77101" lon="4.64387">
        <ele>566.35</ele>
        <time>2021-03-24T09:06:31Z</time>
      </trkpt>
      <trkpt lat="45.771" lon="4.64395">
        <ele>565.87</ele>
        <time>2021-03-24T09:06:32Z</time>
      </trkpt>
      <trkpt lat="45.77099" lon="4.64402">
        <ele>565.39</ele>
        <time>2021-03-24T09:06:33Z</time>
      </trkpt>
      <trkpt lat="45.77098" lon="4.64409">
        <ele>564.43</ele>
        <time>2021-03-24T09:06:34Z</time>
      </trkpt>
      <trkpt lat="45.77097" lon="4.64415">
        <ele>563.47</ele>
        <time>2021-03-24T09:06:35Z</time>
      </trkpt>
      <trkpt lat="45.77097" lon="4.64421">
        <ele>562.51</ele>
        <time>2021-03-24T09:06:36Z</time>
      </trkpt>
      <trkpt lat="45.77096" lon="4.64426">
        <ele>562.03</ele>
        <time>2021-03-24T09:06:37Z</time>
      </trkpt>
      <trkpt lat="45.77096" lon="4.64431">
        <ele>561.55</ele>
        <time>2021-03-24T09:06:38Z</time>
      </trkpt>
      <trkpt lat="45.77097" lon="4.64435">
        <ele>561.07</ele>
        <time>2021-03-24T09:06:39Z</time>
      </trkpt>
      <trkpt lat="45.77097" lon="4.64441">
        <ele>560.59</ele>
        <time>2021-03-24T09:06:40Z</time>
      </trkpt>
      <trkpt lat="45.77097" lon="4.64447">
        <ele>560.59</ele>
        <time>2021-03-24T09:06:41Z</time>
      </trkpt>
      <trkpt lat="45.77097" lon="4.64461">
        <ele>560.11</ele>
        <time>2021-03-24T09:06:43Z</time>
      </trkpt>
      <trkpt lat="45.77088" lon="4.64494">
        <ele>557.22</ele>
        <time>2021-03-24T09:06:51Z</time>
      </trkpt>
      <trkpt lat="45.77087" lon="4.64497">
        <ele>557.22</ele>
        <time>2021-03-24T09:06:52Z</time>
      </trkpt>
      <trkpt lat="45.77082" lon="4.6451">
        <ele>554.82</ele>
        <time>2021-03-24T09:06:56Z</time>
      </trkpt>
      <trkpt lat="45.77079" lon="4.64513">
        <ele>554.82</ele>
        <time>2021-03-24T09:06:57Z</time>
      </trkpt>
      <trkpt lat="45.77076" lon="4.64517">
        <ele>553.86</ele>
        <time>2021-03-24T09:06:58Z</time>
      </trkpt>
      <trkpt lat="45.77073" lon="4.6452">
        <ele>553.38</ele>
        <time>2021-03-24T09:06:59Z</time>
      </trkpt>
      <trkpt lat="45.7707" lon="4.64522">
        <ele>552.9</ele>
        <time>2021-03-24T09:07:00Z</time>
      </trkpt>
      <trkpt lat="45.77068" lon="4.64523">
        <ele>552.41</ele>
        <time>2021-03-24T09:07:01Z</time>
      </trkpt>
      <trkpt lat="45.77065" lon="4.64526">
        <ele>551.93</ele>
        <time>2021-03-24T09:07:02Z</time>
      </trkpt>
      <trkpt lat="45.77063" lon="4.64529">
        <ele>551.45</ele>
        <time>2021-03-24T09:07:03Z</time>
      </trkpt>
      <trkpt lat="45.77061" lon="4.64533">
        <ele>550.97</ele>
        <time>2021-03-24T09:07:04Z</time>
      </trkpt>
      <trkpt lat="45.77059" lon="4.64537">
        <ele>550.97</ele>
        <time>2021-03-24T09:07:05Z</time>
      </trkpt>
      <trkpt lat="45.77046" lon="4.64568">
        <ele>547.61</ele>
        <time>2021-03-24T09:07:13Z</time>
      </trkpt>
      <trkpt lat="45.77036" lon="4.64585">
        <ele>543.76</ele>
        <time>2021-03-24T09:07:18Z</time>
      </trkpt>
      <trkpt lat="45.77028" lon="4.64599">
        <ele>540.4</ele>
        <time>2021-03-24T09:07:22Z</time>
      </trkpt>
      <trkpt lat="45.77026" lon="4.64603">
        <ele>540.4</ele>
        <time>2021-03-24T09:07:23Z</time>
      </trkpt>
      <trkpt lat="45.77025" lon="4.64607">
        <ele>539.44</ele>
        <time>2021-03-24T09:07:24Z</time>
      </trkpt>
      <trkpt lat="45.77022" lon="4.64611">
        <ele>539.44</ele>
        <time>2021-03-24T09:07:25Z</time>
      </trkpt>
      <trkpt lat="45.7702" lon="4.64614">
        <ele>538.96</ele>
        <time>2021-03-24T09:07:26Z</time>
      </trkpt>
      <trkpt lat="45.77016" lon="4.64618">
        <ele>537.99</ele>
        <time>2021-03-24T09:07:27Z</time>
      </trkpt>
      <trkpt lat="45.77013" lon="4.64622">
        <ele>537.51</ele>
        <time>2021-03-24T09:07:28Z</time>
      </trkpt>
      <trkpt lat="45.76998" lon="4.64654">
        <ele>534.63</ele>
        <time>2021-03-24T09:07:34Z</time>
      </trkpt>
      <trkpt lat="45.76991" lon="4.64669">
        <ele>533.19</ele>
        <time>2021-03-24T09:07:36Z</time>
      </trkpt>
      <trkpt lat="45.76987" lon="4.64677">
        <ele>532.23</ele>
        <time>2021-03-24T09:07:37Z</time>
      </trkpt>
      <trkpt lat="45.76979" lon="4.64692">
        <ele>530.79</ele>
        <time>2021-03-24T09:07:39Z</time>
      </trkpt>
      <trkpt lat="45.76976" lon="4.64698">
        <ele>530.3</ele>
        <time>2021-03-24T09:07:40Z</time>
      </trkpt>
      <trkpt lat="45.76974" lon="4.64704">
        <ele>529.82</ele>
        <time>2021-03-24T09:07:41Z</time>
      </trkpt>
      <trkpt lat="45.76971" lon="4.64708">
        <ele>529.34</ele>
        <time>2021-03-24T09:07:42Z</time>
      </trkpt>
      <trkpt lat="45.76969" lon="4.64713">
        <ele>528.38</ele>
        <time>2021-03-24T09:07:43Z</time>
      </trkpt>
      <trkpt lat="45.76965" lon="4.6472">
        <ele>527.42</ele>
        <time>2021-03-24T09:07:44Z</time>
      </trkpt>
      <trkpt lat="45.76962" lon="4.64725">
        <ele>525.98</ele>
        <time>2021-03-24T09:07:45Z</time>
      </trkpt>
      <trkpt lat="45.76959" lon="4.64729">
        <ele>525.5</ele>
        <time>2021-03-24T09:07:46Z</time>
      </trkpt>
      <trkpt lat="45.76956" lon="4.64735">
        <ele>524.54</ele>
        <time>2021-03-24T09:07:47Z</time>
      </trkpt>
      <trkpt lat="45.76954" lon="4.64741">
        <ele>524.06</ele>
        <time>2021-03-24T09:07:48Z</time>
      </trkpt>
      <trkpt lat="45.76951" lon="4.64745">
        <ele>523.58</ele>
        <time>2021-03-24T09:07:49Z</time>
      </trkpt>
      <trkpt lat="45.76949" lon="4.64751">
        <ele>523.09</ele>
        <time>2021-03-24T09:07:50Z</time>
      </trkpt>
      <trkpt lat="45.76947" lon="4.64756">
        <ele>523.09</ele>
        <time>2021-03-24T09:07:51Z</time>
      </trkpt>
      <trkpt lat="45.76944" lon="4.64762">
        <ele>522.61</ele>
        <time>2021-03-24T09:07:52Z</time>
      </trkpt>
      <trkpt lat="45.76942" lon="4.64766">
        <ele>521.65</ele>
        <time>2021-03-24T09:07:53Z</time>
      </trkpt>
      <trkpt lat="45.7694" lon="4.64771">
        <ele>521.17</ele>
        <time>2021-03-24T09:07:54Z</time>
      </trkpt>
      <trkpt lat="45.76938" lon="4.64777">
        <ele>521.17</ele>
        <time>2021-03-24T09:07:55Z</time>
      </trkpt>
      <trkpt lat="45.76935" lon="4.64789">
        <ele>520.21</ele>
        <time>2021-03-24T09:07:57Z</time>
      </trkpt>
      <trkpt lat="45.76934" lon="4.64797">
        <ele>519.73</ele>
        <time>2021-03-24T09:07:58Z</time>
      </trkpt>
      <trkpt lat="45.76934" lon="4.64804">
        <ele>518.77</ele>
        <time>2021-03-24T09:07:59Z</time>
      </trkpt>
      <trkpt lat="45.76934" lon="4.6481">
        <ele>518.29</ele>
        <time>2021-03-24T09:08:00Z</time>
      </trkpt>
      <trkpt lat="45.76935" lon="4.64816">
        <ele>517.81</ele>
        <time>2021-03-24T09:08:01Z</time>
      </trkpt>
      <trkpt lat="45.76937" lon="4.64822">
        <ele>517.33</ele>
        <time>2021-03-24T09:08:02Z</time>
      </trkpt>
      <trkpt lat="45.76939" lon="4.64827">
        <ele>516.85</ele>
        <time>2021-03-24T09:08:03Z</time>
      </trkpt>
      <trkpt lat="45.76941" lon="4.64832">
        <ele>516.37</ele>
        <time>2021-03-24T09:08:04Z</time>
      </trkpt>
      <trkpt lat="45.76942" lon="4.64839">
        <ele>515.4</ele>
        <time>2021-03-24T09:08:05Z</time>
      </trkpt>
      <trkpt lat="45.76945" lon="4.64846">
        <ele>514.92</ele>
        <time>2021-03-24T09:08:06Z</time>
      </trkpt>
      <trkpt lat="45.76948" lon="4.64854">
        <ele>513.96</ele>
        <time>2021-03-24T09:08:07Z</time>
      </trkpt>
      <trkpt lat="45.76951" lon="4.6486">
        <ele>513.48</ele>
        <time>2021-03-24T09:08:08Z</time>
      </trkpt>
      <trkpt lat="45.76958" lon="4.64871">
        <ele>511.56</ele>
        <time>2021-03-24T09:08:10Z</time>
      </trkpt>
      <trkpt lat="45.76962" lon="4.64874">
        <ele>510.12</ele>
        <time>2021-03-24T09:08:11Z</time>
      </trkpt>
      <trkpt lat="45.76965" lon="4.64875">
        <ele>509.64</ele>
        <time>2021-03-24T09:08:12Z</time>
      </trkpt>
      <trkpt lat="45.76968" lon="4.64878">
        <ele>509.16</ele>
        <time>2021-03-24T09:08:13Z</time>
      </trkpt>
      <trkpt lat="45.7697" lon="4.64882">
        <ele>508.19</ele>
        <time>2021-03-24T09:08:14Z</time>
      </trkpt>
      <trkpt lat="45.76971" lon="4.64884">
        <ele>507.23</ele>
        <time>2021-03-24T09:08:15Z</time>
      </trkpt>
      <trkpt lat="45.76971" lon="4.64886">
        <ele>505.79</ele>
        <time>2021-03-24T09:08:16Z</time>
      </trkpt>
      <trkpt lat="45.76971" lon="4.64888">
        <ele>505.31</ele>
        <time>2021-03-24T09:08:17Z</time>
      </trkpt>
      <trkpt lat="45.76971" lon="4.64891">
        <ele>504.35</ele>
        <time>2021-03-24T09:08:18Z</time>
      </trkpt>
      <trkpt lat="45.76971" lon="4.64895">
        <ele>503.39</ele>
        <time>2021-03-24T09:08:19Z</time>
      </trkpt>
      <trkpt lat="45.76973" lon="4.649">
        <ele>502.91</ele>
        <time>2021-03-24T09:08:20Z</time>
      </trkpt>
      <trkpt lat="45.76975" lon="4.64906">
        <ele>502.43</ele>
        <time>2021-03-24T09:08:21Z</time>
      </trkpt>
      <trkpt lat="45.76977" lon="4.64915">
        <ele>501.95</ele>
        <time>2021-03-24T09:08:22Z</time>
      </trkpt>
      <trkpt lat="45.76979" lon="4.64924">
        <ele>501.46</ele>
        <time>2021-03-24T09:08:23Z</time>
      </trkpt>
      <trkpt lat="45.76986" lon="4.64947">
        <ele>500.98</ele>
        <time>2021-03-24T09:08:25Z</time>
      </trkpt>
      <trkpt lat="45.76994" lon="4.64968">
        <ele>500.98</ele>
        <time>2021-03-24T09:08:27Z</time>
      </trkpt>
      <trkpt lat="45.77" lon="4.64983">
        <ele>500.5</ele>
        <time>2021-03-24T09:08:29Z</time>
      </trkpt>
      <trkpt lat="45.77001" lon="4.64988">
        <ele>499.54</ele>
        <time>2021-03-24T09:08:30Z</time>
      </trkpt>
      <trkpt lat="45.77" lon="4.64992">
        <ele>498.1</ele>
        <time>2021-03-24T09:08:31Z</time>
      </trkpt>
      <trkpt lat="45.76998" lon="4.64996">
        <ele>496.18</ele>
        <time>2021-03-24T09:08:32Z</time>
      </trkpt>
      <trkpt lat="45.76995" lon="4.65">
        <ele>495.22</ele>
        <time>2021-03-24T09:08:33Z</time>
      </trkpt>
      <trkpt lat="45.7699" lon="4.65002">
        <ele>493.29</ele>
        <time>2021-03-24T09:08:34Z</time>
      </trkpt>
      <trkpt lat="45.76985" lon="4.65004">
        <ele>491.37</ele>
        <time>2021-03-24T09:08:35Z</time>
      </trkpt>
      <trkpt lat="45.7698" lon="4.65006">
        <ele>490.41</ele>
        <time>2021-03-24T09:08:36Z</time>
      </trkpt>
      <trkpt lat="45.76974" lon="4.65007">
        <ele>489.45</ele>
        <time>2021-03-24T09:08:37Z</time>
      </trkpt>
      <trkpt lat="45.76967" lon="4.65006">
        <ele>488.97</ele>
        <time>2021-03-24T09:08:38Z</time>
      </trkpt>
      <trkpt lat="45.76953" lon="4.65">
        <ele>488.97</ele>
        <time>2021-03-24T09:08:40Z</time>
      </trkpt>
      <trkpt lat="45.76931" lon="4.64985">
        <ele>487.05</ele>
        <time>2021-03-24T09:08:44Z</time>
      </trkpt>
      <trkpt lat="45.76913" lon="4.64977">
        <ele>485.12</ele>
        <time>2021-03-24T09:08:47Z</time>
      </trkpt>
      <trkpt lat="45.76907" lon="4.64976">
        <ele>483.68</ele>
        <time>2021-03-24T09:08:48Z</time>
      </trkpt>
      <trkpt lat="45.769" lon="4.64976">
        <ele>483.2</ele>
        <time>2021-03-24T09:08:49Z</time>
      </trkpt>
      <trkpt lat="45.76893" lon="4.64979">
        <ele>482.72</ele>
        <time>2021-03-24T09:08:50Z</time>
      </trkpt>
      <trkpt lat="45.76887" lon="4.64982">
        <ele>482.24</ele>
        <time>2021-03-24T09:08:51Z</time>
      </trkpt>
      <trkpt lat="45.76882" lon="4.64986">
        <ele>482.24</ele>
        <time>2021-03-24T09:08:52Z</time>
      </trkpt>
      <trkpt lat="45.76877" lon="4.64992">
        <ele>481.76</ele>
        <time>2021-03-24T09:08:53Z</time>
      </trkpt>
      <trkpt lat="45.76873" lon="4.65001">
        <ele>480.8</ele>
        <time>2021-03-24T09:08:54Z</time>
      </trkpt>
      <trkpt lat="45.76867" lon="4.6501">
        <ele>479.35</ele>
        <time>2021-03-24T09:08:55Z</time>
      </trkpt>
      <trkpt lat="45.76855" lon="4.65026">
        <ele>475.99</ele>
        <time>2021-03-24T09:08:57Z</time>
      </trkpt>
      <trkpt lat="45.76841" lon="4.65041">
        <ele>473.11</ele>
        <time>2021-03-24T09:08:59Z</time>
      </trkpt>
      <trkpt lat="45.76819" lon="4.65059">
        <ele>468.78</ele>
        <time>2021-03-24T09:09:02Z</time>
      </trkpt>
      <trkpt lat="45.76812" lon="4.65063">
        <ele>465.9</ele>
        <time>2021-03-24T09:09:03Z</time>
      </trkpt>
      <trkpt lat="45.76804" lon="4.65066">
        <ele>464.45</ele>
        <time>2021-03-24T09:09:04Z</time>
      </trkpt>
      <trkpt lat="45.76797" lon="4.65068">
        <ele>463.01</ele>
        <time>2021-03-24T09:09:05Z</time>
      </trkpt>
      <trkpt lat="45.7679" lon="4.65068">
        <ele>462.53</ele>
        <time>2021-03-24T09:09:06Z</time>
      </trkpt>
      <trkpt lat="45.76783" lon="4.65067">
        <ele>461.57</ele>
        <time>2021-03-24T09:09:07Z</time>
      </trkpt>
      <trkpt lat="45.76777" lon="4.65065">
        <ele>460.61</ele>
        <time>2021-03-24T09:09:08Z</time>
      </trkpt>
      <trkpt lat="45.76724" lon="4.65046">
        <ele>458.21</ele>
        <time>2021-03-24T09:09:17Z</time>
      </trkpt>
      <trkpt lat="45.76719" lon="4.65048">
        <ele>458.21</ele>
        <time>2021-03-24T09:09:18Z</time>
      </trkpt>
      <trkpt lat="45.76715" lon="4.65053">
        <ele>458.21</ele>
        <time>2021-03-24T09:09:19Z</time>
      </trkpt>
      <trkpt lat="45.76714" lon="4.6506">
        <ele>458.21</ele>
        <time>2021-03-24T09:09:20Z</time>
      </trkpt>
      <trkpt lat="45.76713" lon="4.65066">
        <ele>458.21</ele>
        <time>2021-03-24T09:09:21Z</time>
      </trkpt>
      <trkpt lat="45.76711" lon="4.65072">
        <ele>458.21</ele>
        <time>2021-03-24T09:09:22Z</time>
      </trkpt>
      <trkpt lat="45.7671" lon="4.65077">
        <ele>458.21</ele>
        <time>2021-03-24T09:09:23Z</time>
      </trkpt>
      <trkpt lat="45.76708" lon="4.65082">
        <ele>458.21</ele>
        <time>2021-03-24T09:09:24Z</time>
      </trkpt>
      <trkpt lat="45.76707" lon="4.65086">
        <ele>458.21</ele>
        <time>2021-03-24T09:09:25Z</time>
      </trkpt>
      <trkpt lat="45.76706" lon="4.6509">
        <ele>458.21</ele>
        <time>2021-03-24T09:09:26Z</time>
      </trkpt>
      <trkpt lat="45.76706" lon="4.65094">
        <ele>458.21</ele>
        <time>2021-03-24T09:09:27Z</time>
      </trkpt>
      <trkpt lat="45.76705" lon="4.65097">
        <ele>458.21</ele>
        <time>2021-03-24T09:09:28Z</time>
      </trkpt>
      <trkpt lat="45.76702" lon="4.65113">
        <ele>461.09</ele>
        <time>2021-03-24T09:09:34Z</time>
      </trkpt>
      <trkpt lat="45.767" lon="4.65115">
        <ele>461.57</ele>
        <time>2021-03-24T09:09:35Z</time>
      </trkpt>
      <trkpt lat="45.76699" lon="4.65118">
        <ele>462.05</ele>
        <time>2021-03-24T09:09:36Z</time>
      </trkpt>
      <trkpt lat="45.76697" lon="4.65122">
        <ele>462.53</ele>
        <time>2021-03-24T09:09:37Z</time>
      </trkpt>
      <trkpt lat="45.76696" lon="4.65126">
        <ele>463.01</ele>
        <time>2021-03-24T09:09:38Z</time>
      </trkpt>
      <trkpt lat="45.76696" lon="4.65128">
        <ele>463.49</ele>
        <time>2021-03-24T09:09:39Z</time>
      </trkpt>
      <trkpt lat="45.76696" lon="4.6513">
        <ele>463.97</ele>
        <time>2021-03-24T09:09:42Z</time>
      </trkpt>
      <trkpt lat="45.7667" lon="4.65165">
        <ele>480.2</ele>
      </trkpt>
      <trkpt lat="45.7667" lon="4.65165">
        <ele>480.2</ele>
      </trkpt>
      <trkpt lat="45.76675" lon="4.65298">
        <ele>476.6</ele>
      </trkpt>
      <trkpt lat="45.76675" lon="4.65298">
        <ele>476.6</ele>
      </trkpt>
      <trkpt lat="45.76674" lon="4.65343">
        <ele>475.5</ele>
      </trkpt>
      <trkpt lat="45.76674" lon="4.65343">
        <ele>475.5</ele>
      </trkpt>
      <trkpt lat="45.76654" lon="4.65429">
        <ele>472.1</ele>
      </trkpt>
      <trkpt lat="45.76654" lon="4.65429">
        <ele>472.1</ele>
      </trkpt>
      <trkpt lat="45.76639" lon="4.65479">
        <ele>470</ele>
      </trkpt>
      <trkpt lat="45.76639" lon="4.65479">
        <ele>470</ele>
      </trkpt>
      <trkpt lat="45.76629" lon="4.65505">
        <ele>469.4</ele>
      </trkpt>
      <trkpt lat="45.76629" lon="4.65505">
        <ele>469.4</ele>
      </trkpt>
      <trkpt lat="45.7659" lon="4.65554">
        <ele>468.9</ele>
      </trkpt>
      <trkpt lat="45.7659" lon="4.65554">
        <ele>468.9</ele>
      </trkpt>
      <trkpt lat="45.76555" lon="4.65606">
        <ele>468.5</ele>
      </trkpt>
      <trkpt lat="45.76555" lon="4.65606">
        <ele>468.5</ele>
      </trkpt>
      <trkpt lat="45.76541" lon="4.65631">
        <ele>467.7</ele>
      </trkpt>
      <trkpt lat="45.76541" lon="4.65631">
        <ele>467.7</ele>
      </trkpt>
      <trkpt lat="45.76496" lon="4.65747">
        <ele>461.7</ele>
      </trkpt>
      <trkpt lat="45.76496" lon="4.65747">
        <ele>461.7</ele>
      </trkpt>
      <trkpt lat="45.76448" lon="4.65816">
        <ele>451.1</ele>
      </trkpt>
      <trkpt lat="45.76448" lon="4.65816">
        <ele>451.1</ele>
      </trkpt>
      <trkpt lat="45.76364" lon="4.65929">
        <ele>434.8</ele>
      </trkpt>
      <trkpt lat="45.76364" lon="4.65929">
        <ele>434.8</ele>
      </trkpt>
      <trkpt lat="45.76323" lon="4.65982">
        <ele>427.5</ele>
      </trkpt>
      <trkpt lat="45.76323" lon="4.65982">
        <ele>427.5</ele>
      </trkpt>
      <trkpt lat="45.76308" lon="4.65974">
        <ele>426.6</ele>
      </trkpt>
      <trkpt lat="45.76308" lon="4.65974">
        <ele>426.6</ele>
      </trkpt>
      <trkpt lat="45.76273" lon="4.65916">
        <ele>425.3</ele>
      </trkpt>
      <trkpt lat="45.76273" lon="4.65916">
        <ele>425.3</ele>
      </trkpt>
      <trkpt lat="45.76246" lon="4.65846">
        <ele>424.5</ele>
      </trkpt>
      <trkpt lat="45.76246" lon="4.65846">
        <ele>424.5</ele>
      </trkpt>
      <trkpt lat="45.76214" lon="4.65775">
        <ele>422.8</ele>
      </trkpt>
      <trkpt lat="45.76214" lon="4.65775">
        <ele>422.8</ele>
      </trkpt>
    </trkseg>
  </trk>
</gpx>